Time;durP1;ratioP1;P1;durP2;ratioP2;P2;SDS_P1;SDS_P2;PMS_P1;PMS_P2;Temp;Humidity;BMP_temperature;BMP_pressure;BME280_temperature;BME280_humidity;BME280_pressure;Samples;Min_cycle;Max_cycle;Signal;HPM_P1;HPM_P2
2024/04/24 00:01:56;;;;;;;0.95;0.80;;;;;;;3.88;46.92;91534.97;4926081;29;20029;-76
2024/04/24 00:04:23;;;;;;;1.13;0.90;;;;;;;3.85;47.13;91546.63;4926559;29;20515;-77
2024/04/24 00:06:49;;;;;;;1.42;1.10;;;;;;;3.82;47.49;91544.56;4926424;29;20006;-76
2024/04/24 00:09:15;;;;;;;1.52;1.00;;;;;;;3.79;47.74;91539.94;4926055;29;20096;-77
2024/04/24 00:11:41;;;;;;;2.08;1.10;;;;;;;3.81;47.29;91522.31;4869929;29;20011;-78
2024/04/24 00:14:07;;;;;;;1.52;1.10;;;;;;;3.81;47.67;91526.72;4898374;29;20017;-75
2024/04/24 00:16:34;;;;;;;1.17;1.00;;;;;;;3.81;47.34;91518.97;4897708;29;20015;-78
2024/04/24 00:18:59;;;;;;;1.15;1.02;;;;;;;3.84;46.67;91513.25;4926831;29;20088;-77
2024/04/24 00:21:25;;;;;;;1.35;1.15;;;;;;;3.91;46.88;91518.88;4899876;29;20539;-77
2024/04/24 00:23:51;;;;;;;1.30;1.08;;;;;;;3.95;46.41;91506.97;4929046;29;20025;-76
2024/04/24 00:26:16;;;;;;;1.23;1.02;;;;;;;3.90;46.95;91509.59;4898181;29;20013;-77
2024/04/24 00:28:42;;;;;;;1.75;1.15;;;;;;;3.80;47.45;91505.22;4898659;29;20020;-76
2024/04/24 00:31:07;;;;;;;2.03;1.08;;;;;;;3.77;48.31;91507.59;4925633;29;20065;-77
2024/04/24 00:33:33;;;;;;;1.13;0.93;;;;;;;3.65;50.17;91498.34;4924362;29;20010;-77
2024/04/24 00:35:58;;;;;;;1.50;1.20;;;;;;;3.67;50.25;91498.84;4924562;29;20010;-76
2024/04/24 00:38:24;;;;;;;0.93;0.90;;;;;;;3.73;49.15;91502.94;4898587;29;20010;-77
2024/04/24 00:40:49;;;;;;;1.20;1.00;;;;;;;3.63;48.39;91494.47;4926131;29;20002;-75
2024/04/24 00:43:16;;;;;;;1.00;0.90;;;;;;;3.74;48.01;91490.78;4907090;29;20021;-75
2024/04/24 00:45:42;;;;;;;1.17;0.90;;;;;;;3.74;48.04;91488.19;4924430;29;20038;-76
2024/04/24 00:48:09;;;;;;;0.85;0.70;;;;;;;4.05;46.29;91485.38;4897421;29;20021;-76
2024/04/24 00:50:35;;;;;;;2.75;1.17;;;;;;;4.00;46.38;91477.66;4897358;29;20014;-75
2024/04/24 00:53:02;;;;;;;1.38;0.98;;;;;;;3.96;46.74;91485.19;4897638;29;20018;-76
2024/04/24 00:55:28;;;;;;;1.30;0.88;;;;;;;4.01;46.36;91484.38;4924241;29;20084;-78
2024/04/24 00:57:55;;;;;;;0.85;0.82;;;;;;;3.95;46.94;91483.66;4896680;29;20006;-75
2024/04/24 01:00:21;;;;;;;1.20;1.00;;;;;;;4.01;46.67;91479.19;4923082;29;20010;-77
2024/04/24 01:02:47;;;;;;;2.05;1.13;;;;;;;3.94;47.39;91482.09;4896853;29;20532;-77
2024/04/24 01:05:14;;;;;;;1.50;1.20;;;;;;;4.05;46.67;91477.63;4923838;29;20541;-76
2024/04/24 01:07:40;;;;;;;1.33;1.00;;;;;;;4.00;46.68;91488.78;4923310;29;20025;-76
2024/04/24 01:10:19;;;;;;;1.08;0.90;;;;;;;4.00;46.68;91477.66;4923784;29;20024;-78
2024/04/24 01:12:48;;;;;;;0.75;0.75;;;;;;;4.17;45.83;91473.66;4922505;29;20074;-75
2024/04/24 01:15:15;;;;;;;1.85;1.20;;;;;;;4.14;45.94;91469.03;4900141;29;20007;-77
2024/04/24 01:17:45;;;;;;;1.92;1.10;;;;;;;4.08;46.34;91469.34;4920850;29;20076;-78
2024/04/24 01:20:16;;;;;;;1.30;1.02;;;;;;;4.06;46.33;91467.00;4942754;29;20030;-76
2024/04/24 01:23:09;;;;;;;2.30;1.13;;;;;;;4.08;46.12;91466.75;4898646;29;20038;-75
2024/04/24 01:25:45;;;;;;;1.10;1.00;;;;;;;4.05;46.55;91475.03;4924964;29;20030;-77
2024/04/24 01:28:11;;;;;;;1.90;1.33;;;;;;;4.18;45.30;91466.66;4924287;29;20018;-77
2024/04/24 01:30:37;;;;;;;1.38;0.98;;;;;;;4.23;45.58;91464.00;4898468;29;20388;-77
2024/04/24 01:33:03;;;;;;;1.40;1.10;;;;;;;4.18;45.33;91462.22;4925431;29;20441;-77
2024/04/24 01:35:28;;;;;;;1.17;1.00;;;;;;;4.20;46.44;91459.38;4923965;29;20021;-76
2024/04/24 01:37:54;;;;;;;1.38;1.00;;;;;;;4.12;46.41;91462.53;4924342;29;20021;-77
2024/04/24 01:40:19;;;;;;;1.35;1.00;;;;;;;4.05;47.19;91460.25;4924475;29;20009;-77
2024/04/24 01:42:45;;;;;;;0.98;0.88;;;;;;;4.01;46.28;91463.66;4924147;29;20022;-75
2024/04/24 01:45:11;;;;;;;1.20;0.98;;;;;;;4.03;47.15;91457.19;4924285;29;20375;-75
2024/04/24 01:47:36;;;;;;;1.45;1.10;;;;;;;3.95;47.48;91455.94;4924028;29;20024;-77
2024/04/24 01:50:02;;;;;;;1.33;1.00;;;;;;;3.93;47.14;91455.44;4922398;29;20025;-75
2024/04/24 01:52:28;;;;;;;1.15;1.00;;;;;;;3.92;46.77;91455.72;4903390;29;20014;-76
2024/04/24 01:54:53;;;;;;;1.23;1.08;;;;;;;3.92;46.64;91456.50;4896091;29;20018;-76
2024/04/24 01:57:19;;;;;;;1.95;1.10;;;;;;;3.87;46.51;91453.94;4922097;29;20028;-75
2024/04/24 01:59:44;;;;;;;1.33;1.10;;;;;;;4.12;45.89;91459.94;4922443;29;20043;-75
2024/04/24 02:02:10;;;;;;;1.40;1.00;;;;;;;4.02;46.17;91460.03;4896169;29;20119;-76
2024/04/24 02:04:36;;;;;;;1.27;1.00;;;;;;;3.96;46.67;91451.53;4896016;29;20022;-75
2024/04/24 02:07:01;;;;;;;1.27;1.00;;;;;;;4.02;45.92;91450.44;4896683;29;20076;-77
2024/04/24 02:09:27;;;;;;;2.67;1.33;;;;;;;3.99;47.14;91451.00;4923738;29;20452;-76
2024/04/24 02:11:52;;;;;;;1.35;1.10;;;;;;;3.96;46.40;91452.31;4923466;29;20424;-76
2024/04/24 02:14:18;;;;;;;1.73;1.27;;;;;;;3.94;46.35;91446.63;4922892;29;20010;-75
2024/04/24 02:16:43;;;;;;;1.42;1.13;;;;;;;4.04;45.35;91452.78;4924400;29;20073;-76
2024/04/24 02:19:09;;;;;;;1.58;1.08;;;;;;;4.01;45.00;91448.91;4923160;29;20372;-76
2024/04/24 02:21:35;;;;;;;1.35;1.20;;;;;;;3.99;45.43;91455.41;4924636;29;20478;-77
2024/04/24 02:24:00;;;;;;;4.65;1.08;;;;;;;4.01;44.37;91448.13;4925437;29;20049;-76
2024/04/24 02:26:26;;;;;;;2.13;1.10;;;;;;;4.11;43.71;91446.22;4905203;29;20014;-74
2024/04/24 02:28:51;;;;;;;2.05;1.15;;;;;;;4.09;44.48;91450.16;4899570;29;20013;-77
2024/04/24 02:31:17;;;;;;;2.30;1.20;;;;;;;4.04;44.98;91447.59;4926332;29;20551;-77
2024/04/24 02:33:43;;;;;;;1.58;1.00;;;;;;;4.03;44.40;91438.28;4900558;29;20021;-76
2024/04/24 02:36:08;;;;;;;1.35;1.00;;;;;;;4.04;44.36;91450.19;4926503;29;20017;-76
2024/04/24 02:38:34;;;;;;;1.50;1.00;;;;;;;4.05;43.79;91449.91;4926798;29;20014;-77
2024/04/24 02:40:59;;;;;;;2.33;1.20;;;;;;;4.03;44.12;91440.84;4900000;29;20025;-77
2024/04/24 02:43:25;;;;;;;1.35;1.10;;;;;;;4.05;43.93;91428.41;4926888;29;20122;-77
2024/04/24 02:45:50;;;;;;;1.23;0.95;;;;;;;4.03;43.77;91425.31;4924649;29;20014;-76
2024/04/24 02:48:16;;;;;;;1.65;1.08;;;;;;;4.09;44.10;91422.41;4900027;29;20006;-77
2024/04/24 02:50:42;;;;;;;1.45;1.10;;;;;;;4.08;44.00;91420.13;4924244;29;20451;-76
2024/04/24 02:53:07;;;;;;;1.65;1.10;;;;;;;4.08;44.01;91422.72;4900005;29;20050;-76
2024/04/24 02:55:33;;;;;;;1.30;1.02;;;;;;;4.06;44.05;91417.03;4900025;29;20357;-77
2024/04/24 02:57:58;;;;;;;2.03;1.23;;;;;;;4.15;42.36;91415.41;4946401;29;20009;-78
2024/04/24 03:00:24;;;;;;;1.10;0.90;;;;;;;4.24;42.26;91416.34;4928788;29;20025;-75
2024/04/24 03:02:49;;;;;;;1.35;1.00;;;;;;;4.16;43.41;91409.91;4929044;29;20030;-77
2024/04/24 03:05:15;;;;;;;2.38;1.10;;;;;;;4.26;43.10;91416.09;4925992;29;20073;-77
2024/04/24 03:07:41;;;;;;;1.23;1.00;;;;;;;4.23;43.28;91409.59;4925326;29;20452;-77
2024/04/24 03:10:06;;;;;;;1.25;1.05;;;;;;;4.16;43.33;91404.75;4926120;29;20018;-77
2024/04/24 03:12:32;;;;;;;1.02;0.88;;;;;;;4.30;43.11;91389.34;4925471;29;20053;-76
2024/04/24 03:14:58;;;;;;;1.35;1.10;;;;;;;4.20;43.46;91404.22;4899023;29;20014;-76
2024/04/24 03:17:23;;;;;;;1.15;0.95;;;;;;;4.17;43.05;91405.53;4925034;29;20014;-77
2024/04/24 03:19:49;;;;;;;1.27;1.13;;;;;;;4.08;43.54;91391.63;4925091;29;20006;-75
2024/04/24 03:22:14;;;;;;;1.88;0.98;;;;;;;4.17;43.43;91390.75;4925317;29;20042;-76
2024/04/24 03:24:43;;;;;;;1.17;1.02;;;;;;;4.14;43.27;91400.88;4899451;29;20434;-75
2024/04/24 03:27:08;;;;;;;2.15;1.10;;;;;;;4.12;42.36;91393.41;4925437;29;20021;-77
2024/04/24 03:29:34;;;;;;;2.13;1.40;;;;;;;4.17;42.67;91400.34;4875199;29;20010;-77
2024/04/24 03:32:00;;;;;;;3.35;1.17;;;;;;;4.28;42.11;91396.63;4925872;29;20020;-76
2024/04/24 03:34:25;;;;;;;1.20;1.10;;;;;;;4.21;42.42;91398.78;4927800;29;20489;-76
2024/04/24 03:36:51;;;;;;;1.25;1.00;;;;;;;4.12;43.84;91377.88;4899289;29;20483;-75
2024/04/24 03:39:17;;;;;;;1.30;1.00;;;;;;;4.29;41.95;91387.03;4925322;29;20476;-75
2024/04/24 03:41:42;;;;;;;3.72;1.30;;;;;;;4.21;42.31;91385.81;4924280;29;20053;-75
2024/04/24 03:44:08;;;;;;;1.45;1.17;;;;;;;4.27;42.63;91384.69;4923785;29;20026;-75
2024/04/24 03:46:33;;;;;;;2.03;1.15;;;;;;;4.25;42.04;91375.66;4925354;29;20563;-76
2024/04/24 03:48:59;;;;;;;2.33;1.40;;;;;;;4.13;42.06;91379.41;4925295;29;20014;-77
2024/04/24 03:51:24;;;;;;;2.55;1.30;;;;;;;4.33;42.30;91388.03;4925195;29;20067;-77
2024/04/24 03:53:50;;;;;;;1.65;1.20;;;;;;;4.35;41.55;91373.00;4925453;29;20007;-76
2024/04/24 03:56:16;;;;;;;2.17;1.20;;;;;;;4.35;41.51;91378.16;4925209;29;20021;-77
2024/04/24 03:58:42;;;;;;;2.63;1.20;;;;;;;4.32;41.49;91382.09;4925017;29;20010;-76
2024/04/24 04:01:07;;;;;;;3.72;1.70;;;;;;;4.63;40.20;91381.75;4925223;29;20010;-77
2024/04/24 04:03:33;;;;;;;1.63;1.15;;;;;;;4.47;40.75;91372.59;4924945;29;20025;-74
2024/04/24 04:05:58;;;;;;;1.05;0.95;;;;;;;4.45;40.89;91378.06;4932626;29;20072;-77
2024/04/24 04:08:24;;;;;;;2.55;1.20;;;;;;;4.51;40.87;91369.19;4903027;29;20029;-78
2024/04/24 04:10:50;;;;;;;1.15;0.90;;;;;;;4.49;40.79;91378.28;4925300;29;20021;-74
2024/04/24 04:13:16;;;;;;;2.03;1.20;;;;;;;4.31;41.76;91383.13;4897840;29;20010;-77
2024/04/24 04:15:41;;;;;;;1.48;1.02;;;;;;;4.35;41.33;91370.41;4899677;29;20013;-77
2024/04/24 04:18:07;;;;;;;1.92;1.30;;;;;;;4.43;40.66;91369.78;4923178;29;20024;-77
2024/04/24 04:20:32;;;;;;;2.30;1.30;;;;;;;4.34;41.16;91374.78;4924965;29;20472;-77
2024/04/24 04:23:00;;;;;;;2.17;1.33;;;;;;;4.28;41.77;91362.16;4898783;29;20487;-76
2024/04/24 04:25:29;;;;;;;1.52;1.20;;;;;;;4.19;42.71;91372.38;4924632;29;20010;-76
2024/04/24 04:27:54;;;;;;;3.00;1.30;;;;;;;4.11;42.94;91378.13;4897390;29;20010;-77
2024/04/24 04:30:20;;;;;;;1.67;1.20;;;;;;;4.04;42.67;91369.91;4923340;29;20014;-77
2024/04/24 04:32:45;;;;;;;2.22;1.30;;;;;;;4.18;42.25;91381.16;4923694;29;20560;-77
2024/04/24 04:35:11;;;;;;;1.90;1.30;;;;;;;4.15;42.48;91381.72;4924056;29;20116;-77
2024/04/24 04:37:37;;;;;;;1.85;1.17;;;;;;;4.10;43.31;91374.00;4897587;29;20032;-76
2024/04/24 04:40:03;;;;;;;2.13;1.23;;;;;;;4.03;43.94;91378.72;4923796;29;20672;-76
2024/04/24 04:42:29;;;;;;;3.88;1.70;;;;;;;3.98;43.95;91379.53;4925507;29;20034;-77
2024/04/24 04:44:55;;;;;;;2.40;1.40;;;;;;;3.94;44.75;91374.13;4898668;29;20721;-78
2024/04/24 04:47:20;;;;;;;1.88;1.27;;;;;;;3.88;46.43;91372.63;4898437;29;20659;-78
2024/04/24 04:49:46;;;;;;;1.42;1.10;;;;;;;3.95;44.33;91383.44;4926739;29;20069;-79
2024/04/24 04:52:12;;;;;;;2.35;1.40;;;;;;;4.03;42.45;91378.72;4874459;29;20104;-79
2024/04/24 04:54:37;;;;;;;3.00;1.55;;;;;;;4.06;44.61;91378.19;4923771;29;20014;-81
2024/04/24 04:57:03;;;;;;;2.78;1.52;;;;;;;4.17;44.82;91364.09;4921789;29;20021;-80
2024/04/24 04:59:28;;;;;;;2.58;1.48;;;;;;;4.19;45.52;91377.53;4925409;29;20018;-78
2024/04/24 05:01:54;;;;;;;1.42;1.17;;;;;;;4.37;43.49;91374.25;4925835;29;20010;-77
2024/04/24 05:04:19;;;;;;;2.38;1.30;;;;;;;4.41;41.96;91381.47;4923738;29;20020;-76
2024/04/24 05:06:45;;;;;;;1.67;1.23;;;;;;;4.51;42.23;91374.38;4898189;29;20100;-77
2024/04/24 05:09:11;;;;;;;0.95;0.82;;;;;;;4.56;42.41;91370.94;4927429;29;20086;-78
2024/04/24 05:11:36;;;;;;;2.42;1.10;;;;;;;4.76;42.86;91381.09;4925265;29;20053;-78
2024/04/24 05:14:02;;;;;;;2.35;1.30;;;;;;;4.76;43.45;91396.63;4923495;29;20096;-76
2024/04/24 05:16:28;;;;;;;1.55;1.10;;;;;;;4.93;41.55;91379.84;4926080;29;20029;-78
2024/04/24 05:18:53;;;;;;;2.80;1.50;;;;;;;5.06;41.04;91381.75;4927716;29;20022;-77
2024/04/24 05:21:19;;;;;;;3.78;1.30;;;;;;;5.09;41.40;91383.03;4874835;29;20061;-76
2024/04/24 05:23:44;;;;;;;2.28;1.50;;;;;;;5.07;41.34;91385.16;4925564;29;20018;-78
2024/04/24 05:29:06;;;;;;;1.92;1.35;;;;;;;5.43;40.64;91390.63;4890544;29;20022;-77
2024/04/24 05:31:33;;;;;;;2.03;1.30;;;;;;;5.43;39.79;91378.44;4889699;29;20010;-78
2024/04/24 05:33:59;;;;;;;1.95;1.40;;;;;;;5.49;40.52;91381.72;4925376;29;20014;-78
2024/04/24 05:36:25;;;;;;;2.65;1.50;;;;;;;5.58;40.43;91387.84;4898768;29;20455;-77
2024/04/24 05:38:50;;;;;;;2.25;1.40;;;;;;;5.79;39.39;91395.31;4925574;29;20026;-78
2024/04/24 05:41:16;;;;;;;1.92;1.23;;;;;;;6.02;39.25;91393.69;4898082;29;20010;-78
2024/04/24 05:43:42;;;;;;;2.35;1.27;;;;;;;6.10;39.48;91400.81;4924512;29;20367;-79
2024/04/24 05:46:07;;;;;;;1.80;1.20;;;;;;;6.16;38.85;91391.13;4898474;29;20020;-78
2024/04/24 05:48:33;;;;;;;2.20;1.30;;;;;;;6.28;37.78;91398.47;4897368;29;20029;-79
2024/04/24 05:50:58;;;;;;;2.28;1.40;;;;;;;6.28;38.80;91399.22;4924200;29;20025;-78
2024/04/24 05:53:24;;;;;;;2.00;1.38;;;;;;;6.32;39.07;91402.03;4930449;29;20058;-78
2024/04/24 05:55:50;;;;;;;1.98;1.38;;;;;;;6.50;38.76;91397.84;4874680;29;20088;-77
2024/04/24 05:58:16;;;;;;;1.98;1.33;;;;;;;6.55;38.91;91397.75;4922765;29;20021;-78
2024/04/24 06:00:41;;;;;;;2.13;1.35;;;;;;;6.78;37.26;91406.44;4923288;29;20010;-77
2024/04/24 06:03:07;;;;;;;2.38;1.40;;;;;;;6.92;37.00;91404.59;4921598;29;20088;-76
2024/04/24 06:05:33;;;;;;;2.80;1.45;;;;;;;7.08;36.38;91399.88;4922103;29;20018;-76
2024/04/24 06:07:59;;;;;;;2.95;1.48;;;;;;;7.29;37.34;91398.41;4923340;29;20024;-76
2024/04/24 06:10:25;;;;;;;1.70;1.20;;;;;;;7.58;37.04;91389.47;4897926;29;20014;-78
2024/04/24 06:12:50;;;;;;;8.20;2.13;;;;;;;7.92;35.97;91401.22;4922633;29;20010;-78
2024/04/24 06:15:16;;;;;;;2.30;1.30;;;;;;;8.55;34.84;91397.66;4924124;29;20025;-77
2024/04/24 06:17:42;;;;;;;2.20;1.40;;;;;;;8.77;33.68;91395.31;4922143;29;20045;-76
2024/04/24 06:20:08;;;;;;;1.70;1.27;;;;;;;8.69;34.37;91389.75;4922459;29;20025;-76
2024/04/24 06:22:33;;;;;;;1.88;1.30;;;;;;;8.54;35.38;91397.97;4922025;29;20021;-77
2024/04/24 06:24:59;;;;;;;2.08;1.35;;;;;;;8.44;34.31;91400.81;4922007;29;20022;-75
2024/04/24 06:27:24;;;;;;;3.15;1.50;;;;;;;8.71;33.11;91424.16;4922239;29;20020;-76
2024/04/24 06:29:50;;;;;;;1.40;1.20;;;;;;;9.16;32.21;91397.91;4922333;29;20025;-76
2024/04/24 06:32:16;;;;;;;1.63;1.02;;;;;;;9.12;31.85;91412.63;4925080;29;20018;-76
2024/04/24 06:34:41;;;;;;;2.30;1.40;;;;;;;8.95;33.09;91404.75;4921678;29;20057;-76
2024/04/24 06:37:08;;;;;;;3.50;1.60;;;;;;;9.12;32.13;91411.88;4921478;29;20022;-75
2024/04/24 06:39:33;;;;;;;1.80;1.20;;;;;;;9.51;32.67;91418.09;4922146;29;20337;-76
2024/04/24 06:41:59;;;;;;;2.30;1.42;;;;;;;9.79;32.90;91395.84;4922303;29;20025;-76
2024/04/24 06:44:24;;;;;;;4.60;1.50;;;;;;;10.95;30.31;91407.38;4920374;29;20054;-76
2024/04/24 06:46:50;;;;;;;1.75;1.30;;;;;;;11.95;32.27;91407.00;4920885;29;20357;-77
2024/04/24 06:49:15;;;;;;;2.08;1.35;;;;;;;12.49;30.91;91399.13;4921714;29;20010;-77
2024/04/24 06:51:41;;;;;;;1.55;1.02;;;;;;;12.04;29.37;91399.81;4920340;29;20014;-76
2024/04/24 06:54:07;;;;;;;3.20;1.30;;;;;;;11.68;29.72;91419.47;4921064;29;20037;-75
2024/04/24 06:56:32;;;;;;;3.03;1.48;;;;;;;11.65;29.01;91410.41;4895036;29;20770;-76
2024/04/24 06:58:58;;;;;;;1.75;1.30;;;;;;;11.48;29.32;91401.88;4893617;29;20021;-76
2024/04/24 07:01:23;;;;;;;3.92;1.45;;;;;;;11.07;30.84;91405.94;4917946;29;20010;-77
2024/04/24 07:03:49;;;;;;;2.78;1.42;;;;;;;11.06;30.71;91396.56;4893274;29;20028;-76
2024/04/24 07:06:15;;;;;;;1.98;1.20;;;;;;;10.56;31.04;91414.41;4921438;29;20010;-75
2024/04/24 07:08:40;;;;;;;1.83;1.30;;;;;;;10.78;31.81;91404.81;4923230;29;20018;-75
2024/04/24 07:11:06;;;;;;;2.45;1.48;;;;;;;10.75;29.99;91410.66;4918006;29;20011;-78
2024/04/24 07:13:32;;;;;;;2.30;1.40;;;;;;;10.80;31.15;91402.66;4897288;29;20046;-77
2024/04/24 07:15:57;;;;;;;2.40;1.50;;;;;;;10.48;29.23;91402.13;4923893;29;20356;-76
2024/04/24 07:18:23;;;;;;;1.65;0.95;;;;;;;10.60;31.02;91398.84;4898586;29;20014;-76
2024/04/24 07:20:48;;;;;;;3.95;1.48;;;;;;;10.65;30.96;91411.00;4922888;29;20025;-77
2024/04/24 07:23:15;;;;;;;2.15;1.30;;;;;;;10.76;31.76;91418.22;4921364;29;20025;-75
2024/04/24 07:25:41;;;;;;;1.75;1.27;;;;;;;10.47;29.48;91418.91;4919218;29;20600;-76
2024/04/24 07:28:06;;;;;;;1.70;1.23;;;;;;;10.26;31.17;91404.88;4924331;29;20797;-76
2024/04/24 07:30:32;;;;;;;2.10;1.40;;;;;;;9.87;32.49;91410.00;4924846;29;20054;-75
2024/04/24 07:32:58;;;;;;;2.78;1.50;;;;;;;10.13;31.04;91412.59;4924496;29;20021;-76
2024/04/24 07:35:23;;;;;;;1.85;1.30;;;;;;;9.94;31.06;91405.06;4923680;29;20428;-77
2024/04/24 07:37:51;;;;;;;1.80;1.30;;;;;;;9.97;31.85;91419.34;4923805;29;20029;-75
2024/04/24 07:40:16;;;;;;;1.75;1.38;;;;;;;10.15;31.32;91407.81;4921753;29;20026;-76
2024/04/24 07:42:44;;;;;;;2.55;1.50;;;;;;;10.56;31.17;91424.88;4924402;29;20025;-77
2024/04/24 07:45:09;;;;;;;3.72;1.33;;;;;;;10.87;30.99;91408.16;4925906;29;20034;-78
2024/04/24 07:47:35;;;;;;;1.80;1.38;;;;;;;11.16;30.97;91402.19;4925050;29;20029;-77
2024/04/24 07:50:01;;;;;;;2.17;1.38;;;;;;;11.12;30.82;91409.13;4925698;29;20460;-77
2024/04/24 07:52:27;;;;;;;2.47;1.40;;;;;;;11.64;30.08;91411.50;4925884;29;21093;-76
2024/04/24 07:54:52;;;;;;;1.90;1.40;;;;;;;11.98;28.48;91404.50;4925782;29;20010;-78
2024/04/24 07:57:18;;;;;;;3.17;1.52;;;;;;;12.21;29.90;91404.19;4925305;29;20106;-80
2024/04/24 07:59:43;;;;;;;13.30;1.50;;;;;;;12.45;29.22;91414.78;4925862;29;20021;-78
2024/04/24 08:02:09;;;;;;;3.45;1.50;;;;;;;12.28;28.41;91413.06;4925803;29;20471;-78
2024/04/24 08:04:35;;;;;;;2.17;1.35;;;;;;;12.39;29.14;91407.41;4925180;29;20050;-78
2024/04/24 08:07:01;;;;;;;1.85;1.35;;;;;;;12.39;28.50;91410.03;4926072;29;20006;-77
2024/04/24 08:09:26;;;;;;;2.33;1.33;;;;;;;12.27;28.72;91408.13;4922881;29;20439;-76
2024/04/24 08:11:52;;;;;;;2.20;1.30;;;;;;;12.44;29.31;91409.84;4924369;29;20313;-76
2024/04/24 08:14:17;;;;;;;15.25;2.13;;;;;;;12.43;29.35;91427.44;4923924;29;20715;-77
2024/04/24 08:16:43;;;;;;;1.90;1.30;;;;;;;12.00;28.83;91425.16;4924280;29;20084;-77
2024/04/24 08:19:08;;;;;;;3.65;1.77;;;;;;;12.30;29.69;91420.63;4923780;29;20010;-78
2024/04/24 08:21:34;;;;;;;1.52;1.17;;;;;;;12.58;28.58;91423.44;4920717;29;20097;-78
2024/04/24 08:24:00;;;;;;;2.00;1.30;;;;;;;12.61;28.84;91414.94;4925138;29;20014;-77
2024/04/24 08:26:26;;;;;;;1.73;1.25;;;;;;;12.82;29.08;91411.47;4925702;29;20061;-79
2024/04/24 08:28:51;;;;;;;2.65;1.42;;;;;;;12.47;29.03;91423.09;4926312;29;20010;-78
2024/04/24 08:31:17;;;;;;;2.53;1.33;;;;;;;12.87;28.22;91433.03;4926044;29;20018;-77
2024/04/24 08:33:43;;;;;;;3.42;1.42;;;;;;;12.72;28.47;91433.63;4898707;29;20010;-78
2024/04/24 08:36:13;;;;;;;2.75;1.38;;;;;;;12.91;27.54;91431.28;4924654;29;20029;-77
2024/04/24 08:38:39;;;;;;;1.92;1.17;;;;;;;12.37;26.82;91417.47;4926313;29;20068;-77
2024/04/24 08:41:10;;;;;;;2.17;1.30;;;;;;;12.36;30.18;91421.16;4925697;29;20131;-77
2024/04/24 08:43:44;;;;;;;2.30;1.30;;;;;;;12.68;27.87;91427.53;4926071;29;20360;-77
2024/04/24 08:46:11;;;;;;;1.85;1.30;;;;;;;12.77;28.25;91424.81;4925868;29;20010;-79
2024/04/24 08:48:41;;;;;;;2.40;1.40;;;;;;;13.03;28.40;91420.03;4926106;29;20069;-78
2024/04/24 08:51:08;;;;;;;1.70;1.30;;;;;;;12.85;28.53;91426.56;4944955;29;20708;-78
2024/04/24 08:53:35;;;;;;;1.83;1.30;;;;;;;13.26;29.86;91424.88;4932494;28;20102;-78
2024/04/24 08:56:04;;;;;;;2.25;1.50;;;;;;;13.30;26.54;91421.28;4928097;29;20491;-77
2024/04/24 08:58:32;;;;;;;1.90;1.30;;;;;;;11.83;27.83;91426.78;4931417;29;20070;-78
2024/04/24 09:01:03;;;;;;;2.35;1.35;;;;;;;12.27;27.76;91418.63;4923865;29;20092;-78
2024/04/24 09:03:40;;;;;;;2.10;1.30;;;;;;;12.49;28.96;91425.38;4925397;29;20014;-79
2024/04/24 09:06:09;;;;;;;1.92;1.38;;;;;;;12.84;28.01;91419.78;4935394;29;20026;-79
2024/04/24 09:08:35;;;;;;;2.08;1.30;;;;;;;13.04;28.53;91416.31;4934303;29;20021;-79
2024/04/24 09:11:01;;;;;;;5.43;2.53;;;;;;;13.12;27.09;91415.44;4944230;29;20567;-80
2024/04/24 09:13:28;;;;;;;2.30;1.33;;;;;;;13.43;28.35;91416.81;4944858;29;20484;-79
2024/04/24 09:15:55;;;;;;;1.90;1.30;;;;;;;13.83;27.57;91410.88;4940703;29;20100;-78
2024/04/24 09:18:21;;;;;;;1.80;1.30;;;;;;;13.34;27.81;91410.91;4916258;29;20005;-80
2024/04/24 09:20:47;;;;;;;3.78;1.20;;;;;;;13.62;26.61;91410.22;4941433;29;20026;-80
2024/04/24 09:23:18;;;;;;;2.05;1.40;;;;;;;13.70;26.77;91404.84;4952203;29;20037;-79
2024/04/24 09:25:45;;;;;;;2.70;1.20;;;;;;;13.70;26.85;91404.09;4941053;29;20013;-80
2024/04/24 09:28:10;;;;;;;1.88;1.20;;;;;;;13.74;27.22;91403.09;4942548;29;20009;-79
2024/04/24 09:30:39;;;;;;;2.15;1.20;;;;;;;13.24;26.48;91408.66;4935519;29;20546;-79
2024/04/24 09:33:05;;;;;;;1.42;1.10;;;;;;;13.08;25.41;91411.97;4930268;29;20020;-78
2024/04/24 09:35:31;;;;;;;2.92;1.42;;;;;;;12.70;26.11;91407.72;4954267;28;20013;-78
2024/04/24 09:37:57;;;;;;;6.47;1.98;;;;;;;12.54;26.59;91398.94;4953388;29;20466;-76
2024/04/24 09:40:24;;;;;;;4.68;1.40;;;;;;;12.15;28.79;91400.97;4953476;29;20105;-78
2024/04/24 09:42:52;;;;;;;1.52;1.17;;;;;;;12.83;26.80;91413.00;4942680;29;20025;-78
2024/04/24 09:45:26;;;;;;;1.95;1.30;;;;;;;13.26;26.20;91419.63;4936797;29;20028;-79
2024/04/24 09:47:52;;;;;;;2.20;1.10;;;;;;;13.22;24.84;91409.00;4937233;29;20021;-78
2024/04/24 09:50:17;;;;;;;2.20;1.48;;;;;;;13.03;27.86;91406.91;4933514;29;20086;-76
2024/04/24 09:52:47;;;;;;;2.38;1.30;;;;;;;13.39;26.96;91392.28;4917393;29;20014;-78
2024/04/24 09:55:13;;;;;;;1.92;1.20;;;;;;;13.83;27.99;91405.59;4934316;29;20474;-79
2024/04/24 09:57:39;;;;;;;2.00;1.33;;;;;;;13.73;26.95;91396.31;4926910;29;20006;-77
2024/04/24 10:00:08;;;;;;;3.42;1.35;;;;;;;14.12;26.95;91395.91;4940204;29;20025;-78
2024/04/24 10:02:44;;;;;;;2.42;1.20;;;;;;;13.75;24.14;91388.84;4922549;29;20061;-78
2024/04/24 10:05:20;;;;;;;2.20;1.30;;;;;;;14.19;26.47;91397.97;4913572;29;20058;-77
2024/04/24 10:07:55;;;;;;;2.05;1.30;;;;;;;14.20;25.71;91387.06;4937260;29;20010;-78
2024/04/24 10:10:30;;;;;;;1.42;1.00;;;;;;;14.35;25.50;91394.25;4947035;29;20275;-79
2024/04/24 10:12:57;;;;;;;1.52;1.10;;;;;;;14.34;25.69;91389.31;4934792;29;20014;-77
2024/04/24 10:15:24;;;;;;;2.00;1.35;;;;;;;14.63;25.53;91393.50;4910194;29;20463;-80
2024/04/24 10:17:51;;;;;;;2.10;1.17;;;;;;;14.36;25.35;91397.66;4930455;29;20033;-77
2024/04/24 10:20:20;;;;;;;2.60;1.40;;;;;;;14.68;25.81;91401.19;4927154;29;20432;-79
2024/04/24 10:22:47;;;;;;;2.28;1.30;;;;;;;14.03;23.47;91385.50;4925083;29;20014;-79
2024/04/24 10:25:16;;;;;;;1.50;1.10;;;;;;;13.19;25.25;91383.38;4899462;29;20022;-77
2024/04/24 10:27:45;;;;;;;1.40;1.17;;;;;;;12.74;28.49;91383.44;4930221;29;20113;-77
2024/04/24 10:30:11;;;;;;;3.08;1.45;;;;;;;12.91;25.72;91388.50;4925176;29;20010;-79
2024/04/24 10:32:37;;;;;;;1.13;0.90;;;;;;;13.04;25.48;91376.91;4925155;29;20014;-78
2024/04/24 10:35:04;;;;;;;2.25;1.40;;;;;;;13.35;27.02;91373.00;4924893;29;20010;-79
2024/04/24 10:37:29;;;;;;;1.25;1.02;;;;;;;13.48;24.41;91390.28;4922652;29;20014;-78
2024/04/24 10:39:55;;;;;;;1.50;1.20;;;;;;;13.32;24.80;91387.56;4944850;29;20029;-76
2024/04/24 10:42:21;;;;;;;1.65;1.10;;;;;;;13.29;25.62;91380.34;4942020;29;20017;-79
2024/04/24 10:44:47;;;;;;;2.22;1.30;;;;;;;12.83;24.25;91365.72;4951961;28;20018;-78
2024/04/24 10:47:16;;;;;;;1.73;1.30;;;;;;;12.46;25.71;91376.91;4927927;29;20535;-78
2024/04/24 10:49:58;;;;;;;1.50;1.20;;;;;;;12.42;25.90;91375.28;4909445;29;20010;-76
2024/04/24 10:52:25;;;;;;;2.00;1.38;;;;;;;12.20;26.00;91392.13;4927349;29;20097;-78
2024/04/24 10:54:52;;;;;;;1.83;1.30;;;;;;;11.98;25.52;91374.88;4930865;29;20029;-76
2024/04/24 10:57:17;;;;;;;2.03;1.10;;;;;;;11.70;25.86;91382.47;4958042;29;20009;-77
2024/04/24 10:59:46;;;;;;;2.85;1.60;;;;;;;12.32;26.01;91367.81;4957716;29;20010;-79
2024/04/24 11:02:19;;;;;;;4.65;1.80;;;;;;;12.82;26.79;91359.72;4931237;29;20029;-76
2024/04/24 11:04:44;;;;;;;5.47;2.45;;;;;;;12.89;25.34;91359.94;4905338;29;20360;-79
2024/04/24 11:07:14;;;;;;;5.72;2.45;;;;;;;13.37;24.93;91378.69;4933438;29;20114;-78
2024/04/24 11:09:40;;;;;;;4.85;2.58;;;;;;;13.54;24.87;91372.44;4957640;29;20009;-77
2024/04/24 11:12:09;;;;;;;4.55;2.25;;;;;;;13.38;25.44;91363.72;4957037;29;20010;-77
2024/04/24 11:14:41;;;;;;;3.42;2.08;;;;;;;12.92;24.66;91371.63;4930307;29;20092;-79
2024/04/24 11:17:07;;;;;;;;;;;;;;;12.30;24.97;91365.50;4907429;29;20013;-76
2024/04/24 11:19:33;;;;;;;12.40;5.38;;;;;;;11.97;24.37;91366.25;4957641;29;19947;-79
2024/04/24 11:22:00;;;;;;;10.02;4.25;;;;;;;12.28;24.88;91365.81;4931409;29;20046;-78
2024/04/24 11:24:32;;;;;;;9.07;4.57;;;;;;;12.20;24.44;91360.66;4927545;29;20024;-77
2024/04/24 11:26:58;;;;;;;10.63;4.28;;;;;;;12.78;26.67;91374.59;4926948;29;20092;-77
2024/04/24 11:29:24;;;;;;;8.05;3.05;;;;;;;12.68;23.31;91360.03;4901264;29;20568;-78
2024/04/24 11:31:52;;;;;;;8.30;3.00;;;;;;;12.44;25.00;91362.59;4937486;29;20105;-78
2024/04/24 11:34:19;;;;;;;5.38;2.72;;;;;;;12.14;25.72;91364.59;4944788;28;20068;-78
2024/04/24 11:36:45;;;;;;;5.43;2.67;;;;;;;12.24;24.56;91357.06;4956718;29;20039;-78
2024/04/24 11:39:12;;;;;;;6.72;2.80;;;;;;;12.43;24.08;91353.97;4931641;29;20014;-77